Time;durP1;ratioP1;P1;durP2;ratioP2;P2;SDS_P1;SDS_P2;PMS_P1;PMS_P2;Temp;Humidity;BMP_temperature;BMP_pressure;BME280_temperature;BME280_humidity;BME280_pressure;Samples;Min_cycle;Max_cycle;Signal;HPM_P1;HPM_P2
2020/12/31 13:06:16;;;;;;;2.87;1.43;;;;;;;5.59;80.99;99842.13;4914376;29;20660;-74
2020/12/31 13:08:44;;;;;;;1.97;1.73;;;;;;;5.68;80.89;99856.66;4916771;29;20256;-72
2020/12/31 13:11:11;;;;;;;2.27;1.37;;;;;;;5.52;81.35;99861.25;4920565;28;20653;-72
2020/12/31 13:13:41;;;;;;;3.77;1.80;;;;;;;5.34;81.42;99859.69;4911315;29;20207;-72
2020/12/31 13:16:09;;;;;;;1.97;1.60;;;;;;;5.29;81.41;99844.84;4911878;29;20491;-72
2020/12/31 13:18:37;;;;;;;1.87;1.40;;;;;;;5.44;81.52;99858.16;4913274;29;20258;-72
2020/12/31 13:21:05;;;;;;;1.80;1.40;;;;;;;5.59;81.48;99854.59;4917978;29;20221;-73
2020/12/31 13:23:33;;;;;;;3.03;1.67;;;;;;;5.34;81.44;99860.53;4929967;29;20230;-73
2020/12/31 13:26:03;;;;;;;2.07;1.30;;;;;;;5.50;81.57;99860.44;4927987;29;20201;-74
2020/12/31 13:28:33;;;;;;;1.23;1.13;;;;;;;5.41;81.54;99861.03;4925473;29;20227;-74
2020/12/31 13:31:00;;;;;;;5.70;1.90;;;;;;;5.29;81.65;99847.53;4928683;29;20731;-72
2020/12/31 13:33:27;;;;;;;1.93;1.40;;;;;;;5.20;81.26;99821.47;4937627;29;20211;-73
2020/12/31 13:35:55;;;;;;;4.87;1.63;;;;;;;5.22;82.12;99856.84;4937170;28;20194;-73
2020/12/31 13:38:22;;;;;;;2.00;1.50;;;;;;;5.33;81.94;99865.97;4922122;29;20284;-73
2020/12/31 13:40:50;;;;;;;1.60;1.50;;;;;;;5.36;81.93;99865.78;4934539;29;20214;-73
2020/12/31 13:43:17;;;;;;;3.05;1.85;;;;;;;5.33;81.91;99863.31;4928739;29;21187;-74
2020/12/31 13:45:44;;;;;;;1.50;1.40;;;;;;;5.42;81.92;99868.91;4927918;29;20217;-74
2020/12/31 13:48:12;;;;;;;1.87;1.40;;;;;;;5.09;81.29;99818.56;4928136;29;20207;-74
2020/12/31 13:50:39;;;;;;;3.10;1.60;;;;;;;5.34;81.51;99843.72;4962515;28;20291;-74
2020/12/31 13:53:07;;;;;;;2.37;1.40;;;;;;;5.46;81.42;99869.59;4968350;28;20198;-82
2020/12/31 13:55:34;;;;;;;2.27;1.70;;;;;;;5.27;81.21;99845.91;4970759;28;20568;-75
2020/12/31 13:58:02;;;;;;;3.03;1.47;;;;;;;5.30;81.58;99867.00;4970080;28;20212;-74
2020/12/31 14:00:40;;;;;;;3.43;1.90;;;;;;;5.29;81.68;99875.94;4970541;28;20191;-74
2020/12/31 14:03:08;;;;;;;1.77;1.40;;;;;;;5.24;81.87;99870.91;4970149;28;20287;-75
2020/12/31 14:05:35;;;;;;;2.23;1.37;;;;;;;5.28;81.98;99877.75;4969996;28;20316;-74
2020/12/31 14:08:02;;;;;;;2.07;1.50;;;;;;;5.31;81.88;99882.03;4971285;28;20199;-75
2020/12/31 14:10:29;;;;;;;4.73;1.53;;;;;;;5.33;81.79;99879.28;4967602;28;20204;-75
2020/12/31 14:12:57;;;;;;;3.40;1.57;;;;;;;5.33;81.87;99881.94;4955870;28;20297;-75
2020/12/31 14:15:29;;;;;;;2.60;1.50;;;;;;;4.75;81.71;99806.44;4971083;28;21184;-75
2020/12/31 14:17:56;;;;;;;3.20;1.27;;;;;;;5.25;82.29;99885.91;4968149;28;20224;-72
2020/12/31 14:20:24;;;;;;;1.37;1.27;;;;;;;5.22;82.31;99886.09;4968680;28;20203;-72
2020/12/31 14:22:51;;;;;;;3.00;2.13;;;;;;;5.27;82.13;99894.66;4969930;28;20674;-73
2020/12/31 14:25:19;;;;;;;6.60;1.70;;;;;;;5.21;82.32;99892.38;4969080;28;20223;-72
2020/12/31 14:27:46;;;;;;;1.90;1.33;;;;;;;5.37;81.82;99904.75;4969067;28;20197;-73
2020/12/31 14:30:17;;;;;;;2.30;1.40;;;;;;;5.19;82.18;99896.91;4970403;28;20284;-74
2020/12/31 14:32:46;;;;;;;2.03;1.50;;;;;;;4.78;82.14;99837.31;4936881;28;20720;-72
2020/12/31 14:35:13;;;;;;;2.90;1.90;;;;;;;5.17;82.42;99913.91;4968408;28;20189;-74
2020/12/31 14:37:40;;;;;;;2.73;1.67;;;;;;;5.18;82.55;99908.50;4963814;28;20195;-73
2020/12/31 14:40:09;;;;;;;4.37;1.80;;;;;;;5.23;82.20;99917.09;4965185;28;20205;-76
2020/12/31 14:42:36;;;;;;;1.43;1.33;;;;;;;5.07;82.47;99902.97;4970076;28;20716;-77
2020/12/31 14:45:04;;;;;;;1.70;1.30;;;;;;;5.11;82.72;99908.97;4970772;28;20580;-77
2020/12/31 14:47:31;;;;;;;3.80;1.47;;;;;;;5.10;82.39;99889.47;4969632;28;20197;-76
2020/12/31 14:50:00;;;;;;;2.20;1.67;;;;;;;5.20;82.40;99917.28;4947803;28;20257;-78
2020/12/31 14:52:27;;;;;;;3.50;1.60;;;;;;;5.20;83.02;99911.97;4941185;28;20209;-77
2020/12/31 14:54:55;;;;;;;1.40;1.30;;;;;;;5.24;82.67;99912.63;4945105;28;20208;-78
2020/12/31 14:57:22;;;;;;;2.50;1.73;;;;;;;5.22;82.21;99917.19;4944888;28;20275;-77
2020/12/31 14:59:49;;;;;;;6.03;1.50;;;;;;;5.23;82.54;99906.44;4946729;28;20240;-76
2020/12/31 15:02:16;;;;;;;2.30;1.53;;;;;;;4.30;82.54;99775.44;4941554;28;20286;-76
2020/12/31 15:04:44;;;;;;;2.23;1.50;;;;;;;5.21;82.44;99916.31;4945500;28;20258;-77
2020/12/31 15:07:12;;;;;;;2.37;1.50;;;;;;;4.75;82.70;99864.94;4946686;28;20567;-76
2020/12/31 15:09:42;;;;;;;3.10;1.60;;;;;;;5.05;83.23;99917.31;4945941;28;20198;-77
2020/12/31 15:12:09;;;;;;;9.53;1.63;;;;;;;5.13;83.17;99926.53;4940234;28;20204;-76
2020/12/31 15:14:36;;;;;;;2.60;1.33;;;;;;;5.23;82.57;99919.75;4946367;28;20982;-78
2020/12/31 15:17:18;;;;;;;2.07;1.60;;;;;;;4.81;82.58;99888.50;4946411;28;20198;-76
2020/12/31 15:19:45;;;;;;;3.67;1.60;;;;;;;5.25;82.79;99928.50;4947107;28;20217;-77
2020/12/31 15:22:13;;;;;;;2.00;1.43;;;;;;;5.18;82.54;99929.78;4950355;28;20198;-79
2020/12/31 15:24:41;;;;;;;1.37;1.20;;;;;;;5.36;82.32;99922.53;4948973;28;20308;-75
2020/12/31 15:27:09;;;;;;;2.03;1.57;;;;;;;5.26;82.42;99927.56;4943492;28;20197;-81
2020/12/31 15:29:36;;;;;;;1.43;1.33;;;;;;;5.38;82.03;99922.44;4944081;28;20201;-74
2020/12/31 15:32:03;;;;;;;1.83;1.30;;;;;;;5.29;82.41;99927.38;4937630;28;20193;-75
2020/12/31 15:34:31;;;;;;;3.53;1.30;;;;;;;5.37;82.08;99934.91;4944723;28;20203;-76
2020/12/31 15:37:03;;;;;;;2.00;1.37;;;;;;;5.26;82.01;99927.56;4948731;28;20827;-76
2020/12/31 15:39:31;;;;;;;1.57;1.20;;;;;;;5.38;81.95;99931.28;4948030;28;20208;-83
2020/12/31 15:41:59;;;;;;;2.20;1.40;;;;;;;5.44;82.20;99924.72;4944807;29;20297;-75
2020/12/31 15:44:27;;;;;;;2.27;1.50;;;;;;;5.32;82.28;99936.13;4945828;29;20234;-77
2020/12/31 15:46:54;;;;;;;2.20;1.33;;;;;;;5.31;82.48;99937.94;4947358;28;20220;-73
2020/12/31 15:49:23;;;;;;;4.03;1.73;;;;;;;5.19;81.50;99947.47;4945102;28;20331;-81
2020/12/31 15:51:50;;;;;;;2.00;1.33;;;;;;;5.20;81.83;99941.22;4966573;28;20672;-81
2020/12/31 15:54:18;;;;;;;4.73;1.43;;;;;;;5.18;81.57;99940.44;4966844;28;20234;-83
2020/12/31 15:56:50;;;;;;;2.60;1.30;;;;;;;5.27;82.09;99945.25;4969595;28;20200;-86
2020/12/31 15:59:20;;;;;;;1.57;1.30;;;;;;;5.27;81.67;99944.38;4949629;28;20214;-83
2020/12/31 16:01:47;;;;;;;4.23;1.53;;;;;;;5.25;81.49;99915.19;4967357;28;20284;-82
2020/12/31 16:04:14;;;;;;;1.40;1.30;;;;;;;5.21;81.00;99926.97;4968702;28;20274;-81
2020/12/31 16:06:41;;;;;;;2.20;1.03;;;;;;;5.34;81.59;99960.84;4970578;28;20289;-83
2020/12/31 16:09:09;;;;;;;1.37;1.27;;;;;;;5.23;81.59;99948.19;4969429;28;20207;-81
2020/12/31 16:11:36;;;;;;;2.10;1.67;;;;;;;5.12;81.44;99939.94;4980138;28;20205;-81
2020/12/31 16:14:04;;;;;;;3.07;1.70;;;;;;;5.25;81.88;99940.97;4968495;28;20946;-76
2020/12/31 16:16:31;;;;;;;3.37;1.60;;;;;;;3.99;81.22;99761.25;4961948;28;20216;-78
2020/12/31 16:18:58;;;;;;;1.90;1.70;;;;;;;5.34;81.46;99952.84;4972277;28;20214;-75
2020/12/31 16:21:29;;;;;;;4.47;1.47;;;;;;;4.89;81.90;99909.34;4964559;28;20200;-83
2020/12/31 16:23:57;;;;;;;2.40;1.47;;;;;;;5.27;81.64;99955.88;4967446;28;20644;-76
2020/12/31 16:26:25;;;;;;;2.07;1.40;;;;;;;5.21;80.98;99911.00;4963666;28;20767;-76
2020/12/31 16:28:52;;;;;;;1.90;1.60;;;;;;;5.37;81.20;99955.34;4966402;28;20193;-76
2020/12/31 16:31:23;;;;;;;1.50;1.33;;;;;;;5.41;81.38;99954.19;4968432;28;20196;-76
2020/12/31 16:33:51;;;;;;;2.87;1.50;;;;;;;5.56;81.08;99953.31;4968175;28;20206;-74
2020/12/31 16:36:18;;;;;;;1.60;1.30;;;;;;;5.52;81.07;99954.44;4973834;28;20234;-74
2020/12/31 16:38:45;;;;;;;2.00;1.50;;;;;;;5.35;80.71;99941.25;4969536;28;20207;-76
2020/12/31 16:41:15;;;;;;;45.03;18.00;;;;;;;5.40;80.97;99960.47;4955933;28;20299;-77
2020/12/31 16:43:43;;;;;;;8.27;3.73;;;;;;;5.48;80.89;99964.38;4972222;28;20203;-77
2020/12/31 16:46:10;;;;;;;5.80;1.80;;;;;;;5.38;81.41;99943.75;4960976;28;20348;-80
2020/12/31 16:48:38;;;;;;;3.30;2.67;;;;;;;5.60;81.37;99974.31;4969019;28;20459;-74
2020/12/31 16:51:05;;;;;;;2.90;1.90;;;;;;;5.53;81.36;99974.78;4953662;28;20252;-77
2020/12/31 16:53:35;;;;;;;1.67;1.23;;;;;;;5.42;80.64;99967.41;4967981;28;20193;-76
2020/12/31 16:56:20;;;;;;;2.63;1.37;;;;;;;5.44;80.83;99972.66;4968926;28;20198;-77
2020/12/31 16:58:47;;;;;;;3.20;1.90;;;;;;;5.35;81.42;99975.88;4972167;28;20204;-77
2020/12/31 17:01:22;;;;;;;1.97;1.57;;;;;;;5.29;81.50;99964.63;4961603;28;20197;-77
2020/12/31 17:03:50;;;;;;;2.70;1.53;;;;;;;5.17;82.05;99970.66;4962282;28;20267;-77
2020/12/31 17:06:21;;;;;;;2.40;1.60;;;;;;;5.37;81.66;99976.63;4969039;28;20729;-76
2020/12/31 17:09:08;;;;;;;4.17;2.30;;;;;;;5.28;81.92;99973.56;4970512;28;20200;-77
2020/12/31 17:11:36;;;;;;;2.93;1.60;;;;;;;5.12;81.86;99948.78;4963879;28;20189;-76
2020/12/31 17:14:03;;;;;;;5.70;2.03;;;;;;;5.21;82.16;99985.53;4968023;28;20319;-75
2020/12/31 17:16:32;;;;;;;3.80;2.90;;;;;;;5.20;82.19;99959.88;4968373;28;20284;-76
2020/12/31 17:19:03;;;;;;;4.83;2.10;;;;;;;5.36;81.84;99988.22;4967716;28;20752;-74
2020/12/31 17:21:32;;;;;;;1.90;1.57;;;;;;;5.04;82.08;99963.47;4966778;28;20200;-74
2020/12/31 17:23:59;;;;;;;6.30;1.73;;;;;;;5.29;81.89;99991.25;4973174;28;20200;-74
2020/12/31 17:26:27;;;;;;;4.30;1.80;;;;;;;5.01;82.05;99956.53;4950885;28;20204;-75
2020/12/31 17:28:55;;;;;;;3.67;1.90;;;;;;;5.21;82.01;99998.84;4976623;28;20548;-75
2020/12/31 17:31:22;;;;;;;3.30;1.90;;;;;;;5.13;82.58;99979.75;4962833;28;20198;-75
2020/12/31 17:33:49;;;;;;;2.00;1.47;;;;;;;5.16;82.42;99998.22;4967318;28;20213;-76
2020/12/31 17:36:18;;;;;;;3.10;1.90;;;;;;;5.29;82.12;100004.56;4972212;28;20550;-76
2020/12/31 17:38:48;;;;;;;2.93;1.87;;;;;;;5.19;81.96;99974.09;4967316;28;20296;-77
2020/12/31 17:41:17;;;;;;;3.20;1.70;;;;;;;5.33;81.65;100002.56;4966807;28;20198;-77
2020/12/31 17:43:45;;;;;;;2.90;1.70;;;;;;;4.73;81.79;99935.97;4966862;28;20201;-75
2020/12/31 17:46:14;;;;;;;3.10;1.83;;;;;;;5.25;82.16;100000.38;4967233;28;20594;-76
2020/12/31 17:48:42;;;;;;;3.40;2.37;;;;;;;5.35;81.80;100005.16;4968092;28;20304;-76
2020/12/31 17:51:13;;;;;;;2.47;1.87;;;;;;;5.49;81.68;100019.34;4965788;28;20236;-74
2020/12/31 17:53:41;;;;;;;188.73;91.37;;;;;;;5.46;81.88;100019.53;4965975;28;20670;-76
2020/12/31 17:56:09;;;;;;;23.27;11.40;;;;;;;5.53;81.33;100020.06;4965363;28;20550;-75
2020/12/31 17:58:37;;;;;;;5.73;2.90;;;;;;;5.47;81.83;100026.56;4966918;28;20201;-75
2020/12/31 18:01:05;;;;;;;4.90;2.47;;;;;;;5.44;81.48;100031.22;4959771;28;20201;-76
2020/12/31 18:03:32;;;;;;;3.43;2.10;;;;;;;5.42;81.81;100030.47;4964017;28;20193;-73
2020/12/31 18:06:00;;;;;;;3.57;1.97;;;;;;;5.47;81.91;100025.72;4963378;28;20230;-76
2020/12/31 18:08:28;;;;;;;6.43;3.43;;;;;;;5.43;81.79;100037.50;4959523;28;20198;-77
2020/12/31 18:10:56;;;;;;;2.73;2.03;;;;;;;5.30;81.64;100040.88;4970413;28;20210;-74
2020/12/31 18:13:23;;;;;;;2.40;2.10;;;;;;;5.17;82.09;99991.09;4960921;28;20748;-77
2020/12/31 18:15:51;;;;;;;5.60;2.10;;;;;;;5.51;81.69;100040.56;4966974;28;20589;-76
2020/12/31 18:18:19;;;;;;;3.63;2.20;;;;;;;5.47;81.90;100044.34;4970417;28;20684;-76
2020/12/31 18:20:46;;;;;;;4.03;2.00;;;;;;;5.48;81.55;100035.41;4953639;28;20269;-81
2020/12/31 18:23:13;;;;;;;2.50;1.70;;;;;;;5.52;81.83;100050.31;4969089;28;20189;-73
2020/12/31 18:25:57;;;;;;;3.97;2.03;;;;;;;5.27;82.03;100050.84;4968331;28;20268;-79
2020/12/31 18:28:25;;;;;;;2.17;1.73;;;;;;;5.27;82.24;100048.19;4970177;28;20189;-81
2020/12/31 18:30:52;;;;;;;3.43;2.60;;;;;;;5.27;82.23;100059.69;4967238;28;20509;-80
2020/12/31 18:33:20;;;;;;;4.70;2.67;;;;;;;5.34;82.03;100052.22;4968851;28;20189;-70
2020/12/31 18:35:48;;;;;;;3.27;1.97;;;;;;;5.49;81.45;100061.09;4949776;28;20214;-74
2020/12/31 18:38:18;;;;;;;4.73;2.83;;;;;;;5.39;81.68;100058.13;4971795;28;20554;-74
2020/12/31 18:40:45;;;;;;;4.37;2.27;;;;;;;5.41;81.73;100063.34;4967126;28;20197;-75
2020/12/31 18:43:14;;;;;;;3.87;2.40;;;;;;;5.20;81.60;100029.06;4971606;28;20211;-73
2020/12/31 18:45:41;;;;;;;1.90;1.53;;;;;;;5.33;81.72;100069.13;4970515;28;20219;-74
2020/12/31 18:48:09;;;;;;;1.83;1.53;;;;;;;5.36;81.61;100065.44;4972096;28;20206;-73
2020/12/31 18:50:36;;;;;;;2.60;1.70;;;;;;;5.43;81.30;100072.13;4969578;28;20686;-73
2020/12/31 18:53:05;;;;;;;2.03;1.60;;;;;;;5.57;81.31;100069.53;4975369;28;20661;-87
2020/12/31 18:55:32;;;;;;;3.17;1.80;;;;;;;5.64;81.16;100070.88;4969942;28;20651;-72
2020/12/31 18:57:59;;;;;;;1.67;1.53;;;;;;;5.54;81.07;100053.72;4971530;28;20219;-75
2020/12/31 19:00:27;;;;;;;3.23;1.80;;;;;;;5.64;81.17;100073.53;4977212;28;20201;-73
2020/12/31 19:02:54;;;;;;;2.87;1.70;;;;;;;5.59;81.03;100083.59;4962954;28;20213;-73
2020/12/31 19:05:23;;;;;;;2.67;1.97;;;;;;;5.34;81.21;100072.66;4969795;28;20222;-71
2020/12/31 19:07:51;;;;;;;2.37;1.53;;;;;;;5.41;81.18;100095.31;4959399;28;20200;-72
2020/12/31 19:10:19;;;;;;;3.43;2.17;;;;;;;5.37;81.21;100094.63;4963832;28;20205;-71
2020/12/31 19:12:47;;;;;;;2.37;1.77;;;;;;;5.39;81.13;100097.19;4968550;28;20196;-75
2020/12/31 19:15:15;;;;;;;8.50;2.83;;;;;;;5.43;80.87;100104.06;4968158;28;20362;-75
2020/12/31 19:17:47;;;;;;;4.33;2.73;;;;;;;5.46;80.87;100107.41;4967034;28;20688;-76
2020/12/31 19:20:15;;;;;;;5.67;2.50;;;;;;;5.42;80.89;100105.88;4952696;28;20228;-74
2020/12/31 19:22:43;;;;;;;5.93;1.87;;;;;;;5.45;81.14;100104.81;4956226;28;20204;-75
2020/12/31 19:25:13;;;;;;;5.90;1.53;;;;;;;5.57;80.96;100107.66;4952101;28;20227;-76
2020/12/31 19:27:41;;;;;;;1.80;1.40;;;;;;;5.56;80.78;100110.41;4953740;28;20204;-77
2020/12/31 19:30:09;;;;;;;1.50;1.37;;;;;;;5.51;80.87;100107.13;4954077;28;21083;-76
2020/12/31 19:32:38;;;;;;;2.77;1.70;;;;;;;5.43;80.72;100104.06;4951954;28;20203;-76
2020/12/31 19:35:08;;;;;;;1.50;1.40;;;;;;;5.20;80.58;100070.75;4952131;28;20198;-77
2020/12/31 19:37:36;;;;;;;3.67;1.87;;;;;;;5.39;80.90;100110.50;4952427;28;20297;-77
2020/12/31 19:40:05;;;;;;;2.10;1.60;;;;;;;5.39;80.80;100129.16;4951758;28;20658;-76
2020/12/31 19:42:32;;;;;;;5.53;1.90;;;;;;;5.43;80.65;100128.03;4955607;28;20280;-76
2020/12/31 19:44:59;;;;;;;2.13;1.60;;;;;;;4.90;81.19;100058.25;4957428;28;20307;-77
2020/12/31 19:47:27;;;;;;;7.83;1.50;;;;;;;5.32;81.08;100133.09;4948008;28;20550;-76
2020/12/31 19:49:54;;;;;;;2.83;1.90;;;;;;;5.26;81.36;100129.84;4954848;28;20246;-74
2020/12/31 19:52:23;;;;;;;3.23;2.00;;;;;;;5.23;81.54;100139.81;4954452;28;20562;-76
2020/12/31 19:54:50;;;;;;;4.27;2.33;;;;;;;5.26;81.33;100139.63;4953001;28;20185;-74
2020/12/31 19:57:17;;;;;;;5.93;1.97;;;;;;;5.31;81.22;100140.22;4959268;28;20316;-76
2020/12/31 19:59:44;;;;;;;4.37;2.27;;;;;;;5.38;80.88;100148.72;4957514;28;20210;-76
2020/12/31 20:02:15;;;;;;;4.10;2.00;;;;;;;5.42;80.93;100147.59;4958740;28;20279;-75
2020/12/31 20:04:42;;;;;;;1.97;1.50;;;;;;;5.13;80.79;100098.66;4956387;28;20214;-75
2020/12/31 20:07:12;;;;;;;2.40;1.60;;;;;;;5.42;81.03;100152.94;4956944;28;20204;-77
2020/12/31 20:09:43;;;;;;;1.70;1.47;;;;;;;5.25;80.68;100120.16;4957061;28;20190;-78
2020/12/31 20:12:10;;;;;;;2.13;1.33;;;;;;;5.43;81.20;100157.31;4961034;28;20199;-77
2020/12/31 20:14:38;;;;;;;1.67;1.57;;;;;;;5.42;80.93;100153.78;4952394;28;20201;-76
2020/12/31 20:17:05;;;;;;;14.43;2.93;;;;;;;5.42;80.79;100161.78;4968878;28;20199;-77
2020/12/31 20:19:32;;;;;;;4.20;2.20;;;;;;;5.44;80.95;100167.00;4968643;28;20705;-76
2020/12/31 20:22:00;;;;;;;4.70;1.90;;;;;;;5.49;80.68;100167.59;4969260;28;20285;-72
2020/12/31 20:24:28;;;;;;;4.10;2.23;;;;;;;5.44;80.76;100165.22;4969274;28;20293;-74
2020/12/31 20:26:58;;;;;;;3.50;2.03;;;;;;;5.43;80.68;100168.81;4968781;28;20201;-73
2020/12/31 20:29:26;;;;;;;1.80;1.70;;;;;;;5.50;81.01;100172.00;4962173;28;20663;-73
2020/12/31 20:31:54;;;;;;;9.10;3.33;;;;;;;5.27;81.00;100152.00;4968021;28;20287;-73
2020/12/31 20:34:23;;;;;;;4.93;2.70;;;;;;;5.40;80.87;100184.09;4980267;28;20202;-74
2020/12/31 20:36:50;;;;;;;7.30;2.50;;;;;;;5.36;80.91;100182.56;4975393;28;20196;-74
2020/12/31 20:39:17;;;;;;;2.37;1.50;;;;;;;5.24;81.12;100184.13;4977891;28;20197;-77
2020/12/31 20:41:44;;;;;;;4.43;2.03;;;;;;;5.22;81.03;100197.50;4968186;28;20560;-81
2020/12/31 20:44:12;;;;;;;3.60;1.83;;;;;;;5.34;80.83;100189.78;4948288;28;20198;-78
2020/12/31 20:46:41;;;;;;;2.00;1.57;;;;;;;5.35;80.96;100196.81;4963644;28;20218;-76
2020/12/31 20:49:10;;;;;;;1.63;1.47;;;;;;;5.30;81.02;100189.09;4965801;28;20770;-78
2020/12/31 20:51:40;;;;;;;3.40;1.80;;;;;;;5.35;80.88;100202.16;4962268;28;20897;-78
2020/12/31 20:54:08;;;;;;;5.20;1.97;;;;;;;5.32;80.90;100207.63;4960864;28;20208;-74
2020/12/31 20:56:37;;;;;;;3.00;1.87;;;;;;;5.26;81.14;100207.03;4960439;28;20194;-76
2020/12/31 20:59:05;;;;;;;3.03;1.87;;;;;;;5.15;81.54;100204.09;4957297;28;20682;-77
2020/12/31 21:01:33;;;;;;;2.97;1.87;;;;;;;5.31;81.04;100201.47;4958486;28;20201;-76
2020/12/31 21:04:01;;;;;;;1.80;1.40;;;;;;;5.21;81.06;100197.59;4954044;28;20193;-77
2020/12/31 21:06:28;;;;;;;1.40;1.27;;;;;;;5.27;81.07;100206.09;4956771;28;20260;-77
2020/12/31 21:08:55;;;;;;;2.23;1.53;;;;;;;5.21;80.96;100201.13;4951444;28;20197;-77
2020/12/31 21:11:23;;;;;;;2.37;1.67;;;;;;;5.27;81.03;100207.91;4954609;28;20204;-76
2020/12/31 21:13:50;;;;;;;1999.90;999.90;;;;;;;5.39;80.85;100209.88;4956997;28;20458;-79
2020/12/31 21:16:18;;;;;;;283.43;86.00;;;;;;;5.29;81.28;100214.00;4945434;28;20199;-76
2020/12/31 21:18:48;;;;;;;6.77;5.50;;;;;;;5.20;81.18;100193.19;4953999;28;20204;-75
2020/12/31 21:21:16;;;;;;;9.37;5.10;;;;;;;5.32;81.21;100216.47;4957300;28;20301;-77
2020/12/31 21:23:45;;;;;;;6.93;3.30;;;;;;;5.23;81.40;100217.84;4958791;28;20182;-79
2020/12/31 21:26:12;;;;;;;5.27;2.53;;;;;;;5.21;81.06;100217.09;4956335;28;20233;-79
2020/12/31 21:28:40;;;;;;;6.43;2.90;;;;;;;5.20;81.15;100215.38;4955070;28;20720;-80
2020/12/31 21:31:08;;;;;;;14.70;4.67;;;;;;;5.21;81.08;100217.09;4958856;28;20204;-76
2020/12/31 21:33:37;;;;;;;10.40;3.83;;;;;;;5.24;80.94;100213.41;4960458;28;20189;-76
2020/12/31 21:36:13;;;;;;;18.40;4.90;;;;;;;5.33;81.09;100222.66;4955829;28;20300;-78
2020/12/31 21:38:40;;;;;;;4.00;2.47;;;;;;;5.32;80.85;100215.63;4950423;28;20197;-76
2020/12/31 21:41:07;;;;;;;4.30;2.13;;;;;;;5.26;80.70;100220.34;4950294;28;20549;-74
2020/12/31 21:43:35;;;;;;;5.30;2.43;;;;;;;5.22;80.60;100216.13;4953765;28;20286;-73
2020/12/31 21:46:02;;;;;;;6.00;3.87;;;;;;;5.10;80.50;100218.59;4954432;28;20724;-73
2020/12/31 21:48:29;;;;;;;5.17;1.97;;;;;;;4.94;80.19;100206.13;4951838;28;20200;-73
2020/12/31 21:54:09;;;;;;;2.83;2.20;;;;;;;4.69;80.20;100173.78;4978171;23;20271;-78
2020/12/31 21:56:39;;;;;;;9.77;2.90;;;;;;;4.33;80.01;100120.75;4967185;28;20590;-80
2020/12/31 21:59:08;;;;;;;3.93;2.80;;;;;;;4.90;80.35;100217.88;4966372;28;20263;-77
2020/12/31 22:01:35;;;;;;;4.53;2.30;;;;;;;4.68;80.42;100183.56;4969141;28;20285;-76
2020/12/31 22:04:03;;;;;;;4.90;2.80;;;;;;;4.01;80.36;100077.25;4970600;28;20196;-76
2020/12/31 22:06:30;;;;;;;5.50;2.80;;;;;;;4.90;80.96;100238.28;4969888;28;20225;-75
2020/12/31 22:08:58;;;;;;;4.03;2.27;;;;;;;4.86;80.73;100231.38;4973030;28;20614;-78
2020/12/31 22:11:26;;;;;;;3.53;1.80;;;;;;;4.39;80.74;100176.22;4954534;28;20208;-76
2020/12/31 22:13:54;;;;;;;4.37;2.13;;;;;;;4.53;80.98;100208.25;4968247;28;20197;-76
2020/12/31 22:16:21;;;;;;;14.83;10.77;;;;;;;4.71;81.13;100245.50;4964970;28;20280;-76
2020/12/31 22:18:50;;;;;;;8.80;4.10;;;;;;;4.72;81.08;100244.56;4966858;28;20293;-76
2020/12/31 22:21:22;;;;;;;8.90;4.63;;;;;;;4.70;81.00;100241.97;4959713;28;20855;-76
2020/12/31 22:23:53;;;;;;;8.73;3.97;;;;;;;4.57;81.14;100230.22;4969143;28;20645;-76
2020/12/31 22:26:23;;;;;;;19.20;7.83;;;;;;;4.50;81.58;100235.00;4973251;28;20203;-75
2020/12/31 22:28:51;;;;;;;16.83;6.80;;;;;;;4.54;81.18;100249.88;4964124;28;20596;-76
2020/12/31 22:31:18;;;;;;;152.53;44.47;;;;;;;4.37;81.39;100233.94;4971726;28;20255;-76
2020/12/31 22:33:45;;;;;;;45.87;16.67;;;;;;;3.66;81.72;100134.75;4953891;28;20208;-75
2020/12/31 22:36:13;;;;;;;36.27;14.43;;;;;;;4.26;81.90;100231.78;4971331;28;20221;-76
2020/12/31 22:38:40;;;;;;;18.30;7.07;;;;;;;4.22;81.81;100245.31;4964640;28;20207;-75
2020/12/31 22:41:07;;;;;;;18.57;7.10;;;;;;;4.31;82.25;100261.69;4958227;28;20287;-76
2020/12/31 22:43:35;;;;;;;41.80;16.63;;;;;;;4.26;82.23;100260.16;4960092;28;20252;-76
2020/12/31 22:46:03;;;;;;;46.43;17.37;;;;;;;4.27;82.50;100259.22;4950823;28;20594;-77
2020/12/31 22:48:31;;;;;;;268.30;81.80;;;;;;;4.26;82.61;100254.84;4966080;28;20209;-77
2020/12/31 22:50:58;;;;;;;89.87;28.80;;;;;;;4.28;82.83;100261.81;4959328;28;20679;-76
2020/12/31 22:53:25;;;;;;;34.43;13.50;;;;;;;3.14;82.59;100070.97;4964064;28;20241;-76
2020/12/31 22:55:52;;;;;;;34.70;11.30;;;;;;;4.27;82.63;100261.88;4964263;28;20211;-76
2020/12/31 22:58:19;;;;;;;59.07;20.70;;;;;;;4.15;82.89;100251.88;4966872;28;20197;-75
2020/12/31 23:00:47;;;;;;;46.80;14.80;;;;;;;3.80;82.51;100205.78;4954190;28;20292;-76
2020/12/31 23:03:15;;;;;;;203.17;61.93;;;;;;;3.92;82.87;100240.56;4959941;28;20581;-76
2020/12/31 23:05:42;;;;;;;28.77;12.30;;;;;;;3.97;83.09;100240.34;4953954;28;20276;-76
2020/12/31 23:08:09;;;;;;;22.87;10.70;;;;;;;4.03;83.23;100256.88;4964881;28;20696;-74
2020/12/31 23:10:36;;;;;;;11.77;7.20;;;;;;;4.18;83.71;100268.53;4957800;28;20207;-75
2020/12/31 23:13:03;;;;;;;119.53;49.60;;;;;;;4.21;83.74;100271.03;4971135;28;20194;-75
2020/12/31 23:15:31;;;;;;;432.13;151.57;;;;;;;4.25;83.75;100274.38;4968382;28;20736;-75
2020/12/31 23:17:58;;;;;;;228.40;86.33;;;;;;;4.25;83.53;100277.03;4968928;28;20215;-74
2020/12/31 23:20:26;;;;;;;185.20;68.13;;;;;;;4.16;83.60;100261.56;4964483;28;20201;-75
2020/12/31 23:22:53;;;;;;;192.37;74.17;;;;;;;4.24;83.48;100276.19;4948167;28;20195;-75
2020/12/31 23:25:22;;;;;;;208.97;76.10;;;;;;;4.22;83.28;100279.84;4967282;28;20224;-75
2020/12/31 23:27:51;;;;;;;188.43;72.40;;;;;;;4.21;83.40;100275.47;4967973;28;20215;-75
2020/12/31 23:30:19;;;;;;;191.17;66.23;;;;;;;4.19;83.36;100272.91;4967851;28;20189;-75
2020/12/31 23:32:46;;;;;;;96.13;37.47;;;;;;;4.14;83.76;100264.28;4965007;28;20624;-75
2020/12/31 23:35:15;;;;;;;112.10;41.47;;;;;;;4.13;83.65;100265.22;4956221;28;20208;-75
2020/12/31 23:37:47;;;;;;;88.27;30.10;;;;;;;4.15;83.45;100271.34;4972710;28;20193;-74
2020/12/31 23:40:15;;;;;;;81.30;30.27;;;;;;;3.99;83.37;100249.97;4957508;28;20228;-75
2020/12/31 23:42:44;;;;;;;74.00;28.40;;;;;;;4.16;83.20;100288.13;4939439;28;20209;-75
2020/12/31 23:45:12;;;;;;;83.57;30.23;;;;;;;4.15;83.42;100278.44;4964542;28;20271;-74
2020/12/31 23:47:41;;;;;;;173.13;52.03;;;;;;;3.92;82.48;100252.97;4964850;28;20288;-74
2020/12/31 23:50:11;;;;;;;219.33;66.00;;;;;;;4.08;83.11;100285.00;4954106;28;20665;-75
2020/12/31 23:52:39;;;;;;;82.93;28.03;;;;;;;4.05;83.33;100281.56;4943417;28;20239;-76
2020/12/31 23:55:08;;;;;;;49.63;17.63;;;;;;;3.88;83.33;100252.28;4959567;28;20309;-75
2020/12/31 23:57:43;;;;;;;74.60;22.93;;;;;;;4.03;83.07;100280.78;4964555;28;20192;-75
